createdAt,value
2022-09-05T00:04:24.597Z,17.24
2022-09-05T00:09:46.134Z,17.17
2022-09-05T00:15:16.597Z,17.36
2022-09-05T00:24:27.972Z,17.35
2022-09-05T00:26:12.485Z,17.19
2022-09-05T00:31:53.511Z,17.11
2022-09-05T00:36:55.387Z,17.02
2022-09-05T00:41:55.965Z,16.82
2022-09-05T00:47:23.431Z,16.81
2022-09-05T00:53:07.365Z,16.98
2022-09-05T00:58:34.184Z,17.12
2022-09-05T01:03:34.972Z,17.06
2022-09-05T01:08:47.222Z,17.07
2022-09-05T01:13:55.086Z,17.02
2022-09-05T01:19:05.748Z,16.69
2022-09-05T01:24:27.944Z,16.92
2022-09-05T01:29:50.541Z,16.73
2022-09-05T01:35:17.675Z,16.63
2022-09-05T01:40:38.505Z,16.85
2022-09-05T01:45:55.076Z,16.84
2022-09-05T01:51:10.758Z,16.67
2022-09-05T01:56:53.547Z,16.65
2022-09-05T02:02:13.660Z,16.65
2022-09-05T02:07:35.639Z,16.61
2022-09-05T02:13:03.510Z,16.52
2022-09-05T02:18:03.287Z,16.32
2022-09-05T02:23:26.081Z,16.45
2022-09-05T02:28:48.217Z,16.25
2022-09-05T02:34:02.135Z,16.18
2022-09-05T02:45:04.109Z,16.25
2022-09-05T02:45:26.726Z,16.15
2022-09-05T02:56:08.246Z,16.23
2022-09-05T02:57:38.789Z,15.99
2022-09-05T03:01:45.282Z,15.95
2022-09-05T03:07:09.436Z,16.21
2022-09-05T03:12:28.252Z,16.23
2022-09-05T03:18:20.246Z,16.17
2022-09-05T03:23:37.133Z,16.15
2022-09-05T03:28:54.527Z,16.04
2022-09-05T03:34:13.867Z,16.18
2022-09-05T03:39:15.549Z,16.16
2022-09-05T03:44:25.132Z,16.17
2022-09-05T03:52:44.426Z,16.27
2022-09-05T03:57:12.924Z,16.05
2022-09-05T04:00:45.334Z,15.83
2022-09-05T04:08:25.941Z,15.84
2022-09-05T04:12:31.613Z,16.08
2022-09-05T04:17:53.121Z,15.92
2022-09-05T04:23:26.985Z,16.02
2022-09-05T04:28:53.160Z,16.23
2022-09-05T04:34:01.134Z,16.37
2022-09-05T04:39:27.479Z,16.29
2022-09-05T04:44:55.627Z,16.14
2022-09-05T04:49:59.356Z,16.09
2022-09-05T04:55:03.721Z,16.01
2022-09-05T05:06:00.513Z,15.98
2022-09-05T05:06:12.920Z,15.92
2022-09-05T05:16:07.661Z,15.93
2022-09-05T05:18:16.111Z,15.94
2022-09-05T05:23:08.286Z,16.23
2022-09-05T05:28:24.352Z,16.12
2022-09-05T05:33:37.922Z,16.45
2022-09-05T05:38:51.063Z,16.20
2022-09-05T05:43:50.255Z,16.46
2022-09-05T05:48:56.809Z,16.90
2022-09-05T05:54:17.962Z,17.20
2022-09-05T05:59:55.392Z,16.85
2022-09-05T06:05:13.838Z,16.94
2022-09-05T06:14:55.184Z,17.13
2022-09-05T06:16:18.317Z,17.35
2022-09-05T06:22:05.954Z,17.39
2022-09-05T06:27:17.988Z,17.56
2022-09-05T06:32:31.661Z,17.72
2022-09-05T06:37:42.775Z,17.97
2022-09-05T06:42:56.023Z,18.13
2022-09-05T06:48:00.548Z,18.08
2022-09-05T06:53:19.700Z,18.25
2022-09-05T06:58:37.942Z,18.46
2022-09-05T07:03:52.142Z,18.51
2022-09-05T07:08:57.766Z,18.65
2022-09-05T07:14:09.739Z,19.20
2022-09-05T07:19:27.813Z,19.84
2022-09-05T07:24:53.729Z,19.56
2022-09-05T07:29:53.399Z,20.37
2022-09-05T07:35:04.695Z,20.62
2022-09-05T07:40:25.884Z,20.73
2022-09-05T07:45:30.273Z,20.62
2022-09-05T07:54:56.211Z,20.63
2022-09-05T07:56:50.903Z,20.56
2022-09-05T08:01:14.265Z,20.59
2022-09-05T08:07:14.345Z,20.39
2022-09-05T08:11:48.252Z,20.41
2022-09-05T08:16:46.827Z,20.37
2022-09-05T08:21:49.161Z,20.19
2022-09-05T08:27:16.232Z,20.55
2022-09-05T08:32:40.499Z,20.92
2022-09-05T08:37:39.647Z,20.80
2022-09-05T08:44:39.452Z,21.01
2022-09-05T08:48:21.857Z,21.40
2022-09-05T08:53:54.828Z,21.58
2022-09-05T09:00:18.836Z,21.73
2022-09-05T09:06:12.272Z,21.41
2022-09-05T09:10:55.553Z,21.88
2022-09-05T09:16:11.528Z,21.67
2022-09-05T09:21:30.953Z,21.67
2022-09-05T09:26:34.498Z,22.37
2022-09-05T09:31:32.916Z,22.44
2022-09-05T09:37:01.948Z,22.79
2022-09-05T09:42:32.384Z,23.14
2022-09-05T09:47:55.053Z,22.88
2022-09-05T09:53:03.954Z,22.63
2022-09-05T10:10:33.314Z,22.90
2022-09-05T10:10:58.215Z,22.92
2022-09-05T10:15:39.911Z,23.04
2022-09-05T10:21:18.008Z,23.13
2022-09-05T10:26:27.596Z,23.15
2022-09-05T10:35:07.860Z,22.88
2022-09-05T10:37:12.140Z,23.02
2022-09-05T10:42:16.835Z,22.86
2022-09-05T10:47:36.811Z,23.39
2022-09-05T10:53:01.466Z,23.27
2022-09-05T10:58:07.920Z,23.50
2022-09-05T11:03:15.470Z,23.64
2022-09-05T11:08:37.056Z,23.50
2022-09-05T11:13:47.998Z,23.23
2022-09-05T11:18:58.429Z,23.62
2022-09-05T11:24:27.370Z,23.93
2022-09-05T11:29:39.359Z,23.61
2022-09-05T11:40:09.610Z,23.64
2022-09-05T11:40:56.306Z,23.65
2022-09-05T11:45:58.724Z,24.22
2022-09-05T11:51:11.828Z,24.19
2022-09-05T11:56:52.496Z,23.50
2022-09-05T12:01:53.286Z,24.29
2022-09-05T12:13:17.266Z,24.14
2022-09-05T12:18:41.510Z,24.76
2022-09-05T12:25:16.430Z,24.78
2022-09-05T12:29:33.432Z,24.69
2022-09-05T12:41:37.513Z,24.54
2022-09-05T12:41:42.270Z,24.85
2022-09-05T12:42:10.081Z,24.11
2022-09-05T12:45:56.836Z,24.96
2022-09-05T12:51:06.430Z,25.26
2022-09-05T12:57:33.272Z,25.38
2022-09-05T13:03:12.713Z,25.63
2022-09-05T13:07:02.540Z,26.03
2022-09-05T13:14:48.704Z,26.18
2022-09-05T13:17:51.610Z,26.43
2022-09-05T13:22:52.523Z,26.45
2022-09-05T13:27:57.195Z,26.27
2022-09-05T13:37:56.039Z,27.37
2022-09-05T13:38:48.545Z,29.56
2022-09-05T13:43:50.763Z,27.95
2022-09-05T13:49:32.698Z,27.51
2022-09-05T13:54:24.427Z,29.49
2022-09-05T13:59:25.097Z,30.34
2022-09-05T14:05:17.729Z,29.01
2022-09-05T14:10:47.222Z,28.38
2022-09-05T14:15:59.029Z,30.06
2022-09-05T14:21:18.297Z,28.47
2022-09-05T14:26:22.975Z,28.25
2022-09-05T14:34:05.754Z,28.73
2022-09-05T14:37:40.804Z,29.15
2022-09-05T14:42:24.934Z,27.11
2022-09-05T14:47:43.913Z,26.33
2022-09-05T15:02:43.897Z,25.70
2022-09-05T15:11:56.330Z,25.37
2022-09-05T15:14:38.560Z,25.62
2022-09-05T15:20:12.671Z,25.64
2022-09-05T15:25:21.702Z,25.16
2022-09-05T15:30:35.037Z,24.89
2022-09-05T15:35:42.510Z,24.77
2022-09-05T15:40:43.519Z,25.10
2022-09-05T15:45:41.558Z,25.01
2022-09-05T15:50:55.202Z,24.60
2022-09-05T15:56:00.160Z,24.13
2022-09-05T16:01:13.135Z,24.36
2022-09-05T16:10:50.491Z,24.46
2022-09-05T16:23:17.035Z,23.85
2022-09-05T16:23:38.108Z,24.11
2022-09-05T16:28:03.964Z,23.90
2022-09-05T16:33:12.851Z,23.78
2022-09-05T16:38:49.173Z,23.65
2022-09-05T16:43:57.933Z,23.59
2022-09-05T16:49:18.023Z,23.47
2022-09-05T16:54:27.095Z,23.26
2022-09-05T16:59:30.148Z,23.18
2022-09-05T17:04:29.758Z,23.14
2022-09-05T17:09:44.190Z,22.93
2022-09-05T17:14:50.102Z,22.79
2022-09-05T17:20:06.748Z,22.62
2022-09-05T17:29:21.143Z,22.81
2022-09-05T17:36:19.094Z,22.95
2022-09-05T17:41:44.864Z,23.02
2022-09-05T17:46:48.678Z,22.79
2022-09-05T17:51:55.691Z,23.00
2022-09-05T17:56:55.003Z,22.98
2022-09-05T18:02:08.369Z,23.03
2022-09-05T18:07:33.467Z,22.86
2022-09-05T18:13:13.486Z,22.74
2022-09-05T18:18:05.495Z,22.50
2022-09-05T18:23:37.099Z,22.65
2022-09-05T18:29:06.342Z,22.59
2022-09-05T18:34:19.159Z,22.60
2022-09-05T18:39:24.247Z,22.54
2022-09-05T18:44:27.989Z,22.29
2022-09-05T18:50:23.863Z,22.23
2022-09-05T18:56:08.972Z,22.15
2022-09-05T19:00:45.035Z,22.16
2022-09-05T19:05:55.297Z,22.21
2022-09-05T19:11:00.919Z,22.19
2022-09-05T19:16:42.160Z,22.40
2022-09-05T19:21:22.110Z,22.26
2022-09-05T19:26:33.924Z,22.41
2022-09-05T19:37:09.041Z,22.14
2022-09-05T19:37:26.146Z,22.22
2022-09-05T19:47:29.443Z,22.30
2022-09-05T19:48:07.725Z,22.36
2022-09-05T19:53:08.001Z,22.46
2022-09-05T19:58:24.672Z,22.30
2022-09-05T20:03:22.980Z,22.38
2022-09-05T20:08:45.566Z,22.29
2022-09-05T20:13:45.517Z,22.19
2022-09-05T20:18:44.511Z,22.10
2022-09-05T20:23:49.490Z,22.19
2022-09-05T20:28:51.500Z,21.92
2022-09-05T20:34:04.112Z,21.89
2022-09-05T20:43:30.782Z,21.94
2022-09-05T20:44:50.673Z,21.94
2022-09-05T20:54:06.089Z,22.00
2022-09-05T20:55:43.471Z,21.79
2022-09-05T21:01:19.688Z,22.19
2022-09-05T21:25:36.624Z,21.79
2022-09-05T21:30:45.396Z,21.41
2022-09-05T21:35:44.851Z,21.71
2022-09-05T21:40:44.521Z,21.53
2022-09-05T21:47:42.351Z,21.63
2022-09-05T21:51:14.440Z,21.39
2022-09-05T21:59:24.926Z,21.57
2022-09-05T22:02:08.527Z,21.55
2022-09-05T22:07:09.204Z,21.58
2022-09-05T22:12:30.415Z,21.77
2022-09-05T22:17:29.537Z,21.89
2022-09-05T22:22:28.915Z,21.67
2022-09-05T22:27:27.723Z,21.31
2022-09-05T22:32:35.057Z,21.44
2022-09-05T22:37:35.854Z,21.19
2022-09-05T22:42:34.938Z,21.06
2022-09-05T22:47:33.832Z,21.08
2022-09-05T22:52:31.829Z,21.04
2022-09-05T22:57:30.324Z,20.87
2022-09-05T23:02:29.254Z,21.12
2022-09-05T23:07:36.241Z,20.95
2022-09-05T23:12:44.826Z,20.84
2022-09-05T23:17:52.451Z,20.84
2022-09-05T23:22:51.171Z,20.92
2022-09-05T23:27:50.809Z,20.90
2022-09-05T23:32:50.998Z,20.99
2022-09-05T23:37:49.507Z,21.01
2022-09-05T23:42:57.803Z,21.00
2022-09-05T23:47:57.323Z,21.25
2022-09-05T23:52:55.972Z,21.24
2022-09-05T23:57:58.547Z,21.05
